sensor_id;sensor_type;location;lat;lon;timestamp;pressure;altitude;pressure_sealevel;temperature;humidity
54808;BME280;40708;50.364;7.550;2023-03-30T00:02:10;99893.31;;;11.59;100.00
54808;BME280;40708;50.364;7.550;2023-03-30T00:04:36;99904.00;;;11.53;100.00
54808;BME280;40708;50.364;7.550;2023-03-30T00:07:02;99907.56;;;11.52;100.00
54808;BME280;40708;50.364;7.550;2023-03-30T00:09:29;99899.63;;;11.49;100.00
54808;BME280;40708;50.364;7.550;2023-03-30T00:11:56;99907.63;;;11.46;100.00
54808;BME280;40708;50.364;7.550;2023-03-30T00:14:27;99897.88;;;11.48;100.00
54808;BME280;40708;50.364;7.550;2023-03-30T00:16:55;99897.78;;;11.53;100.00
54808;BME280;40708;50.364;7.550;2023-03-30T00:19:21;99898.03;;;11.34;100.00
54808;BME280;40708;50.364;7.550;2023-03-30T00:21:47;99890.91;;;11.36;100.00
54808;BME280;40708;50.364;7.550;2023-03-30T00:24:13;99890.16;;;11.25;100.00
54808;BME280;40708;50.364;7.550;2023-03-30T00:26:39;99894.50;;;11.31;100.00
54808;BME280;40708;50.364;7.550;2023-03-30T00:29:04;99882.13;;;11.33;100.00
54808;BME280;40708;50.364;7.550;2023-03-30T00:31:30;99888.47;;;11.18;100.00
54808;BME280;40708;50.364;7.550;2023-03-30T00:33:55;99888.47;;;11.18;100.00
54808;BME280;40708;50.364;7.550;2023-03-30T00:36:21;99872.56;;;11.17;100.00
54808;BME280;40708;50.364;7.550;2023-03-30T00:38:46;99872.34;;;11.35;100.00
54808;BME280;40708;50.364;7.550;2023-03-30T00:41:13;99863.41;;;11.42;100.00
54808;BME280;40708;50.364;7.550;2023-03-30T00:47:01;99853.50;;;11.56;100.00
54808;BME280;40708;50.364;7.550;2023-03-30T00:49:27;99851.84;;;11.45;100.00
54808;BME280;40708;50.364;7.550;2023-03-30T00:51:53;99839.28;;;11.60;100.00
54808;BME280;40708;50.364;7.550;2023-03-30T00:54:18;99839.13;;;11.72;100.00
54808;BME280;40708;50.364;7.550;2023-03-30T00:56:44;99838.09;;;11.82;100.00
54808;BME280;40708;50.364;7.550;2023-03-30T00:59:10;99830.03;;;11.90;100.00
54808;BME280;40708;50.364;7.550;2023-03-30T01:01:38;99823.75;;;11.96;100.00
54808;BME280;40708;50.364;7.550;2023-03-30T01:04:05;99836.44;;;11.75;100.00
54808;BME280;40708;50.364;7.550;2023-03-30T01:06:33;99858.66;;;11.68;100.00
54808;BME280;40708;50.364;7.550;2023-03-30T01:08:58;99873.81;;;11.60;100.00
54808;BME280;40708;50.364;7.550;2023-03-30T01:11:24;99866.50;;;11.79;100.00
54808;BME280;40708;50.364;7.550;2023-03-30T01:14:02;99861.09;;;11.85;100.00
54808;BME280;40708;50.364;7.550;2023-03-30T01:16:46;99849.56;;;11.87;100.00
54808;BME280;40708;50.364;7.550;2023-03-30T01:22:24;99843.81;;;12.16;100.00
54808;BME280;40708;50.364;7.550;2023-03-30T01:36:42;99871.78;;;12.41;100.00
54808;BME280;40708;50.364;7.550;2023-03-30T01:39:31;99874.06;;;12.63;100.00
54808;BME280;40708;50.364;7.550;2023-03-30T01:44:42;99849.34;;;13.05;100.00
54808;BME280;40708;50.364;7.550;2023-03-30T01:47:22;99835.81;;;13.60;100.00
54808;BME280;40708;50.364;7.550;2023-03-30T01:52:27;99823.34;;;14.39;100.00
54808;BME280;40708;50.364;7.550;2023-03-30T01:54:59;99815.47;;;14.32;100.00
54808;BME280;40708;50.364;7.550;2023-03-30T01:57:42;99806.19;;;14.12;100.00
54808;BME280;40708;50.364;7.550;2023-03-30T02:00:12;99802.06;;;13.99;100.00
54808;BME280;40708;50.364;7.550;2023-03-30T02:02:44;99763.22;;;13.89;100.00
54808;BME280;40708;50.364;7.550;2023-03-30T02:05:14;99760.63;;;13.84;100.00
54808;BME280;40708;50.364;7.550;2023-03-30T02:07:44;99770.78;;;13.67;100.00
54808;BME280;40708;50.364;7.550;2023-03-30T02:10:15;99775.81;;;13.42;100.00
54808;BME280;40708;50.364;7.550;2023-03-30T02:12:43;99767.31;;;13.24;100.00
54808;BME280;40708;50.364;7.550;2023-03-30T02:15:10;99778.13;;;13.18;100.00
54808;BME280;40708;50.364;7.550;2023-03-30T02:17:37;99783.41;;;13.19;100.00
54808;BME280;40708;50.364;7.550;2023-03-30T02:20:04;99792.38;;;13.15;100.00
54808;BME280;40708;50.364;7.550;2023-03-30T02:22:32;99813.53;;;13.21;100.00
54808;BME280;40708;50.364;7.550;2023-03-30T02:24:57;99817.00;;;13.26;100.00
54808;BME280;40708;50.364;7.550;2023-03-30T02:27:24;99830.75;;;13.03;100.00
54808;BME280;40708;50.364;7.550;2023-03-30T02:29:50;99852.41;;;12.85;100.00
54808;BME280;40708;50.364;7.550;2023-03-30T02:32:21;99860.88;;;13.05;100.00
54808;BME280;40708;50.364;7.550;2023-03-30T02:37:40;99879.13;;;13.27;100.00
54808;BME280;40708;50.364;7.550;2023-03-30T02:40:13;99890.47;;;13.38;100.00
54808;BME280;40708;50.364;7.550;2023-03-30T02:43:11;99923.53;;;13.28;100.00
54808;BME280;40708;50.364;7.550;2023-03-30T02:46:04;99895.50;;;13.05;100.00
54808;BME280;40708;50.364;7.550;2023-03-30T02:54:16;99931.38;;;12.83;100.00
54808;BME280;40708;50.364;7.550;2023-03-30T02:59:26;99844.22;;;12.94;100.00
54808;BME280;40708;50.364;7.550;2023-03-30T03:02:03;99777.53;;;13.00;100.00
54808;BME280;40708;50.364;7.550;2023-03-30T03:04:29;99719.91;;;12.98;100.00
54808;BME280;40708;50.364;7.550;2023-03-30T03:06:58;99715.41;;;13.01;100.00
54808;BME280;40708;50.364;7.550;2023-03-30T03:09:26;99727.69;;;13.08;100.00
54808;BME280;40708;50.364;7.550;2023-03-30T03:11:52;99711.53;;;13.18;100.00
54808;BME280;40708;50.364;7.550;2023-03-30T03:14:18;99718.59;;;13.19;100.00
54808;BME280;40708;50.364;7.550;2023-03-30T03:16:43;99720.25;;;13.24;100.00
54808;BME280;40708;50.364;7.550;2023-03-30T03:19:08;99713.59;;;13.45;100.00
54808;BME280;40708;50.364;7.550;2023-03-30T03:21:34;99715.25;;;13.49;100.00
54808;BME280;40708;50.364;7.550;2023-03-30T03:24:00;99726.84;;;13.48;100.00
54808;BME280;40708;50.364;7.550;2023-03-30T03:26:26;99738.34;;;13.48;100.00
54808;BME280;40708;50.364;7.550;2023-03-30T03:28:52;99740.06;;;13.52;100.00
54808;BME280;40708;50.364;7.550;2023-03-30T03:31:17;99742.66;;;13.54;100.00
54808;BME280;40708;50.364;7.550;2023-03-30T03:33:43;99750.81;;;13.48;100.00
54808;BME280;40708;50.364;7.550;2023-03-30T03:36:08;99737.53;;;13.46;100.00
54808;BME280;40708;50.364;7.550;2023-03-30T03:38:36;99741.94;;;13.47;100.00
54808;BME280;40708;50.364;7.550;2023-03-30T03:41:01;99745.50;;;13.46;100.00
54808;BME280;40708;50.364;7.550;2023-03-30T03:43:26;99768.91;;;13.34;100.00
54808;BME280;40708;50.364;7.550;2023-03-30T03:45:52;99769.06;;;13.25;100.00
54808;BME280;40708;50.364;7.550;2023-03-30T03:48:19;99770.88;;;13.24;100.00
54808;BME280;40708;50.364;7.550;2023-03-30T03:50:52;99770.06;;;13.21;100.00
54808;BME280;40708;50.364;7.550;2023-03-30T03:53:18;99743.13;;;13.34;100.00
54808;BME280;40708;50.364;7.550;2023-03-30T03:55:44;99744.09;;;13.30;100.00
54808;BME280;40708;50.364;7.550;2023-03-30T03:58:11;99712.13;;;13.30;100.00
54808;BME280;40708;50.364;7.550;2023-03-30T04:00:36;99702.50;;;13.25;100.00
54808;BME280;40708;50.364;7.550;2023-03-30T04:03:01;99714.84;;;13.27;100.00
54808;BME280;40708;50.364;7.550;2023-03-30T04:05:29;99706.97;;;13.23;100.00
54808;BME280;40708;50.364;7.550;2023-03-30T04:07:54;99706.28;;;13.13;100.00
54808;BME280;40708;50.364;7.550;2023-03-30T04:10:21;99697.41;;;13.14;100.00
54808;BME280;40708;50.364;7.550;2023-03-30T04:12:46;99692.97;;;13.13;100.00
54808;BME280;40708;50.364;7.550;2023-03-30T04:15:12;99697.47;;;13.11;100.00
54808;BME280;40708;50.364;7.550;2023-03-30T04:17:37;99701.03;;;13.10;100.00
54808;BME280;40708;50.364;7.550;2023-03-30T04:20:05;99706.34;;;13.10;100.00
54808;BME280;40708;50.364;7.550;2023-03-30T04:22:35;99710.72;;;13.14;100.00
54808;BME280;40708;50.364;7.550;2023-03-30T04:25:00;99722.31;;;13.10;100.00
54808;BME280;40708;50.364;7.550;2023-03-30T04:27:25;99732.31;;;12.99;100.00
54808;BME280;40708;50.364;7.550;2023-03-30T04:29:53;99738.66;;;12.93;100.00
54808;BME280;40708;50.364;7.550;2023-03-30T04:32:22;99750.28;;;12.88;100.00
54808;BME280;40708;50.364;7.550;2023-03-30T04:34:47;99743.22;;;12.87;100.00
54808;BME280;40708;50.364;7.550;2023-03-30T04:37:13;99734.38;;;12.85;100.00
54808;BME280;40708;50.364;7.550;2023-03-30T04:39:45;99750.53;;;12.76;100.00
54808;BME280;40708;50.364;7.550;2023-03-30T04:42:10;99754.19;;;12.70;100.00
54808;BME280;40708;50.364;7.550;2023-03-30T04:44:39;99749.91;;;12.62;100.00
54808;BME280;40708;50.364;7.550;2023-03-30T04:47:04;99747.28;;;12.60;100.00
54808;BME280;40708;50.364;7.550;2023-03-30T04:49:30;99728.63;;;12.62;100.00
54808;BME280;40708;50.364;7.550;2023-03-30T04:51:56;99735.81;;;12.58;100.00
54808;BME280;40708;50.364;7.550;2023-03-30T04:54:21;99732.41;;;12.50;100.00
54808;BME280;40708;50.364;7.550;2023-03-30T04:56:46;99762.72;;;12.41;100.00
54808;BME280;40708;50.364;7.550;2023-03-30T04:59:12;99785.13;;;12.28;100.00
54808;BME280;40708;50.364;7.550;2023-03-30T05:01:37;99806.53;;;12.18;100.00
54808;BME280;40708;50.364;7.550;2023-03-30T05:04:02;99821.63;;;12.17;100.00
54808;BME280;40708;50.364;7.550;2023-03-30T05:06:28;99819.97;;;12.10;100.00
54808;BME280;40708;50.364;7.550;2023-03-30T05:08:54;99826.88;;;12.20;100.00
54808;BME280;40708;50.364;7.550;2023-03-30T05:11:19;99814.41;;;12.25;100.00
54808;BME280;40708;50.364;7.550;2023-03-30T05:13:44;99808.13;;;12.29;100.00
54808;BME280;40708;50.364;7.550;2023-03-30T05:16:10;99797.56;;;12.25;100.00
54808;BME280;40708;50.364;7.550;2023-03-30T05:18:35;99769.16;;;12.27;100.00
54808;BME280;40708;50.364;7.550;2023-03-30T05:21:02;99774.72;;;12.13;100.00
54808;BME280;40708;50.364;7.550;2023-03-30T05:23:28;99780.16;;;12.06;100.00
54808;BME280;40708;50.364;7.550;2023-03-30T05:25:53;99776.47;;;12.13;100.00
54808;BME280;40708;50.364;7.550;2023-03-30T05:28:19;99776.34;;;12.22;100.00
54808;BME280;40708;50.364;7.550;2023-03-30T05:30:44;99769.41;;;12.13;100.00
54808;BME280;40708;50.364;7.550;2023-03-30T05:33:11;99787.97;;;12.16;100.00
54808;BME280;40708;50.364;7.550;2023-03-30T05:35:36;99803.25;;;12.02;100.00
54808;BME280;40708;50.364;7.550;2023-03-30T05:38:02;99801.34;;;12.12;100.00
54808;BME280;40708;50.364;7.550;2023-03-30T05:40:28;99803.81;;;12.21;100.00
54808;BME280;40708;50.364;7.550;2023-03-30T05:42:54;99804.47;;;12.35;100.00
54808;BME280;40708;50.364;7.550;2023-03-30T05:45:19;99817.69;;;12.39;100.00
54808;BME280;40708;50.364;7.550;2023-03-30T05:47:44;99806.97;;;12.45;100.00
54808;BME280;40708;50.364;7.550;2023-03-30T05:50:10;99809.91;;;12.29;100.00
54808;BME280;40708;50.364;7.550;2023-03-30T05:52:35;99796.13;;;12.56;100.00
54808;BME280;40708;50.364;7.550;2023-03-30T05:55:01;99786.56;;;12.93;100.00
54808;BME280;40708;50.364;7.550;2023-03-30T05:57:26;99755.75;;;13.25;100.00
54808;BME280;40708;50.364;7.550;2023-03-30T05:59:52;99728.72;;;13.43;100.00
54808;BME280;40708;50.364;7.550;2023-03-30T06:02:17;99712.59;;;13.49;100.00
54808;BME280;40708;50.364;7.550;2023-03-30T06:04:44;99687.34;;;13.65;100.00
54808;BME280;40708;50.364;7.550;2023-03-30T06:07:09;99688.00;;;13.75;100.00
54808;BME280;40708;50.364;7.550;2023-03-30T06:09:35;99680.69;;;13.83;100.00
54808;BME280;40708;50.364;7.550;2023-03-30T06:12:00;99663.63;;;13.90;100.00
54808;BME280;40708;50.364;7.550;2023-03-30T06:14:26;99674.22;;;13.93;100.00
54808;BME280;40708;50.364;7.550;2023-03-30T06:16:51;99651.00;;;13.96;100.00
54808;BME280;40708;50.364;7.550;2023-03-30T06:19:17;99658.81;;;14.04;100.00
54808;BME280;40708;50.364;7.550;2023-03-30T06:21:42;99657.13;;;14.00;100.00
54808;BME280;40708;50.364;7.550;2023-03-30T06:24:07;99666.75;;;14.07;100.00
54808;BME280;40708;50.364;7.550;2023-03-30T06:26:33;99679.03;;;14.12;100.00
54808;BME280;40708;50.364;7.550;2023-03-30T06:28:58;99679.03;;;14.12;100.00
54808;BME280;40708;50.364;7.550;2023-03-30T06:31:23;99694.84;;;14.20;100.00
54808;BME280;40708;50.364;7.550;2023-03-30T06:33:49;99690.31;;;14.22;100.00
54808;BME280;40708;50.364;7.550;2023-03-30T06:36:15;99696.47;;;14.25;100.00
54808;BME280;40708;50.364;7.550;2023-03-30T06:38:41;99700.84;;;14.28;100.00
54808;BME280;40708;50.364;7.550;2023-03-30T06:41:07;99713.13;;;14.35;100.00
54808;BME280;40708;50.364;7.550;2023-03-30T06:43:36;99723.91;;;14.32;100.00
54808;BME280;40708;50.364;7.550;2023-03-30T06:46:01;99727.19;;;14.42;100.00
54808;BME280;40708;50.364;7.550;2023-03-30T06:48:27;99732.59;;;14.40;100.00
54808;BME280;40708;50.364;7.550;2023-03-30T06:50:53;99730.75;;;14.42;100.00
54808;BME280;40708;50.364;7.550;2023-03-30T06:53:20;99732.31;;;14.49;100.00
54808;BME280;40708;50.364;7.550;2023-03-30T06:55:50;99733.16;;;14.51;100.00
54808;BME280;40708;50.364;7.550;2023-03-30T06:58:16;99713.53;;;14.54;100.00
54808;BME280;40708;50.364;7.550;2023-03-30T07:00:41;99720.63;;;14.55;100.00
54808;BME280;40708;50.364;7.550;2023-03-30T07:03:07;99721.34;;;14.61;100.00
54808;BME280;40708;50.364;7.550;2023-03-30T07:05:33;99733.81;;;14.61;100.00
54808;BME280;40708;50.364;7.550;2023-03-30T07:07:59;99728.69;;;14.52;100.00
54808;BME280;40708;50.364;7.550;2023-03-30T07:10:24;99725.00;;;14.57;100.00
54808;BME280;40708;50.364;7.550;2023-03-30T07:12:50;99722.97;;;14.67;100.00
54808;BME280;40708;50.364;7.550;2023-03-30T07:15:15;99718.53;;;14.66;100.00
54808;BME280;40708;50.364;7.550;2023-03-30T07:17:41;99717.63;;;14.67;100.00
54808;BME280;40708;50.364;7.550;2023-03-30T07:20:08;99717.41;;;14.74;100.00
54808;BME280;40708;50.364;7.550;2023-03-30T07:22:34;99721.53;;;14.86;100.00
54808;BME280;40708;50.364;7.550;2023-03-30T07:24:59;99711.41;;;14.97;100.00
54808;BME280;40708;50.364;7.550;2023-03-30T07:27:25;99689.34;;;15.20;100.00
54808;BME280;40708;50.364;7.550;2023-03-30T07:29:51;99714.81;;;15.62;100.00
54808;BME280;40708;50.364;7.550;2023-03-30T07:32:17;99707.41;;;16.49;100.00
54808;BME280;40708;50.364;7.550;2023-03-30T07:34:43;99690.69;;;16.69;100.00
54808;BME280;40708;50.364;7.550;2023-03-30T07:37:09;99699.66;;;16.41;100.00
54808;BME280;40708;50.364;7.550;2023-03-30T07:39:34;99700.25;;;16.49;100.00
54808;BME280;40708;50.364;7.550;2023-03-30T07:42:00;99706.13;;;16.60;100.00
54808;BME280;40708;50.364;7.550;2023-03-30T07:44:26;99713.91;;;16.42;100.00
54808;BME280;40708;50.364;7.550;2023-03-30T07:46:55;99714.59;;;16.73;100.00
54808;BME280;40708;50.364;7.550;2023-03-30T07:49:21;99714.34;;;16.30;100.00
54808;BME280;40708;50.364;7.550;2023-03-30T07:51:46;99715.13;;;16.33;100.00
54808;BME280;40708;50.364;7.550;2023-03-30T07:54:12;99709.09;;;16.51;100.00
54808;BME280;40708;50.364;7.550;2023-03-30T07:56:38;99708.50;;;16.43;100.00
54808;BME280;40708;50.364;7.550;2023-03-30T07:59:04;99708.31;;;16.48;100.00
54808;BME280;40708;50.364;7.550;2023-03-30T08:01:30;99690.66;;;16.44;100.00
54808;BME280;40708;50.364;7.550;2023-03-30T08:03:56;99695.97;;;16.93;100.00
54808;BME280;40708;50.364;7.550;2023-03-30T08:06:22;99680.75;;;16.95;100.00
54808;BME280;40708;50.364;7.550;2023-03-30T08:08:48;99682.22;;;17.04;100.00
54808;BME280;40708;50.364;7.550;2023-03-30T08:11:13;99676.56;;;17.11;100.00
54808;BME280;40708;50.364;7.550;2023-03-30T08:13:40;99673.69;;;17.16;100.00
54808;BME280;40708;50.364;7.550;2023-03-30T08:16:05;99670.53;;;17.28;100.00
54808;BME280;40708;50.364;7.550;2023-03-30T08:18:32;99661.34;;;17.12;100.00
54808;BME280;40708;50.364;7.550;2023-03-30T08:20:58;99665.19;;;16.82;100.00
54808;BME280;40708;50.364;7.550;2023-03-30T08:23:23;99674.81;;;16.87;100.00
54808;BME280;40708;50.364;7.550;2023-03-30T08:25:48;99679.66;;;16.51;100.00
54808;BME280;40708;50.364;7.550;2023-03-30T08:28:17;99691.13;;;16.30;100.00
54808;BME280;40708;50.364;7.550;2023-03-30T08:30:43;99683.63;;;16.40;100.00
54808;BME280;40708;50.364;7.550;2023-03-30T08:33:08;99690.41;;;16.50;100.00
54808;BME280;40708;50.364;7.550;2023-03-30T08:35:33;99697.38;;;16.29;100.00
54808;BME280;40708;50.364;7.550;2023-03-30T08:37:59;99708.63;;;16.39;100.00
54808;BME280;40708;50.364;7.550;2023-03-30T08:40:25;99710.69;;;16.32;100.00
54808;BME280;40708;50.364;7.550;2023-03-30T08:43:12;99707.50;;;16.21;100.00
54808;BME280;40708;50.364;7.550;2023-03-30T08:45:41;99713.06;;;16.40;100.00
54808;BME280;40708;50.364;7.550;2023-03-30T08:48:15;99716.53;;;16.43;100.00
54808;BME280;40708;50.364;7.550;2023-03-30T08:50:42;99707.00;;;16.35;100.00
54808;BME280;40708;50.364;7.550;2023-03-30T08:53:10;99718.16;;;16.47;100.00
54808;BME280;40708;50.364;7.550;2023-03-30T08:55:48;99736.41;;;16.36;100.00
54808;BME280;40708;50.364;7.550;2023-03-30T08:58:44;99711.13;;;16.71;100.00
54808;BME280;40708;50.364;7.550;2023-03-30T09:01:19;99694.88;;;16.99;100.00
54808;BME280;40708;50.364;7.550;2023-03-30T09:04:15;99704.91;;;17.40;100.00
54808;BME280;40708;50.364;7.550;2023-03-30T09:09:17;99688.59;;;17.23;100.00
54808;BME280;40708;50.364;7.550;2023-03-30T09:11:45;99677.75;;;17.26;100.00
54808;BME280;40708;50.364;7.550;2023-03-30T09:14:26;99676.22;;;17.42;100.00
54808;BME280;40708;50.364;7.550;2023-03-30T09:17:02;99682.69;;;17.37;100.00
54808;BME280;40708;50.364;7.550;2023-03-30T09:19:34;99718.94;;;17.23;100.00
54808;BME280;40708;50.364;7.550;2023-03-30T09:22:04;99734.81;;;17.30;100.00
54808;BME280;40708;50.364;7.550;2023-03-30T09:24:31;100117.31;;;17.29;100.00
54808;BME280;40708;50.364;7.550;2023-03-30T09:27:05;99758.28;;;17.93;100.00
54808;BME280;40708;50.364;7.550;2023-03-30T09:29:40;100180.97;;;18.06;100.00
54808;BME280;40708;50.364;7.550;2023-03-30T09:32:12;100207.19;;;18.50;100.00
54808;BME280;40708;50.364;7.550;2023-03-30T09:34:46;99727.00;;;18.75;100.00
54808;BME280;40708;50.364;7.550;2023-03-30T09:37:16;99718.66;;;18.41;100.00
54808;BME280;40708;50.364;7.550;2023-03-30T09:39:47;99680.56;;;18.92;100.00
54808;BME280;40708;50.364;7.550;2023-03-30T09:45:24;99702.59;;;18.61;100.00
54808;BME280;40708;50.364;7.550;2023-03-30T09:47:52;99690.53;;;18.70;100.00
54808;BME280;40708;50.364;7.550;2023-03-30T09:50:21;99707.50;;;18.30;100.00
54808;BME280;40708;50.364;7.550;2023-03-30T09:52:59;99697.47;;;18.55;100.00
54808;BME280;40708;50.364;7.550;2023-03-30T09:55:31;99711.56;;;18.18;100.00
54808;BME280;40708;50.364;7.550;2023-03-30T09:58:16;99716.69;;;18.03;100.00
54808;BME280;40708;50.364;7.550;2023-03-30T10:00:43;99705.69;;;18.30;100.00
54808;BME280;40708;50.364;7.550;2023-03-30T10:03:19;99710.63;;;18.19;100.00
54808;BME280;40708;50.364;7.550;2023-03-30T10:06:20;99714.16;;;18.00;100.00
54808;BME280;40708;50.364;7.550;2023-03-30T10:08:50;99711.31;;;18.66;100.00
54808;BME280;40708;50.364;7.550;2023-03-30T10:11:27;99729.34;;;18.42;100.00
54808;BME280;40708;50.364;7.550;2023-03-30T10:13:56;99718.41;;;18.47;100.00
54808;BME280;40708;50.364;7.550;2023-03-30T10:16:26;99701.25;;;18.29;100.00
54808;BME280;40708;50.364;7.550;2023-03-30T10:18:57;99706.03;;;18.01;100.00
54808;BME280;40708;50.364;7.550;2023-03-30T10:21:23;99698.59;;;17.86;100.00
54808;BME280;40708;50.364;7.550;2023-03-30T10:24:20;99696.44;;;17.96;100.00
54808;BME280;40708;50.364;7.550;2023-03-30T10:27:11;99696.56;;;17.71;100.00
54808;BME280;40708;50.364;7.550;2023-03-30T10:29:35;99705.16;;;17.57;100.00
54808;BME280;40708;50.364;7.550;2023-03-30T10:32:09;99702.47;;;18.22;100.00
54808;BME280;40708;50.364;7.550;2023-03-30T10:34:37;99694.59;;;18.60;100.00
54808;BME280;40708;50.364;7.550;2023-03-30T10:37:15;99691.22;;;18.55;100.00
54808;BME280;40708;50.364;7.550;2023-03-30T10:39:45;99681.94;;;19.02;100.00
54808;BME280;40708;50.364;7.550;2023-03-30T10:42:16;99682.44;;;18.71;100.00
54808;BME280;40708;50.364;7.550;2023-03-30T10:44:46;99708.75;;;18.21;100.00
54808;BME280;40708;50.364;7.550;2023-03-30T10:50:15;99683.91;;;18.58;100.00
54808;BME280;40708;50.364;7.550;2023-03-30T10:55:56;99692.88;;;18.37;100.00
54808;BME280;40708;50.364;7.550;2023-03-30T10:58:48;99696.94;;;18.87;100.00
54808;BME280;40708;50.364;7.550;2023-03-30T11:01:40;99703.28;;;19.44;100.00
54808;BME280;40708;50.364;7.550;2023-03-30T11:04:16;99720.19;;;20.02;100.00
54808;BME280;40708;50.364;7.550;2023-03-30T11:06:45;99738.94;;;19.29;100.00
54808;BME280;40708;50.364;7.550;2023-03-30T11:09:18;99737.06;;;18.72;100.00
54808;BME280;40708;50.364;7.550;2023-03-30T11:11:50;99735.72;;;17.75;100.00
54808;BME280;40708;50.364;7.550;2023-03-30T11:14:22;99766.75;;;16.09;100.00
54808;BME280;40708;50.364;7.550;2023-03-30T11:17:05;99768.69;;;15.76;100.00
54808;BME280;40708;50.364;7.550;2023-03-30T11:19:39;99777.31;;;15.58;100.00
54808;BME280;40708;50.364;7.550;2023-03-30T11:22:35;99789.66;;;15.01;100.00
54808;BME280;40708;50.364;7.550;2023-03-30T11:25:16;99782.56;;;14.67;100.00
54808;BME280;40708;50.364;7.550;2023-03-30T11:27:52;99787.81;;;14.37;100.00
54808;BME280;40708;50.364;7.550;2023-03-30T11:30:27;99800.03;;;13.71;100.00
54808;BME280;40708;50.364;7.550;2023-03-30T11:35:46;99826.63;;;12.86;100.00
54808;BME280;40708;50.364;7.550;2023-03-30T11:38:25;99830.66;;;12.59;100.00
54808;BME280;40708;50.364;7.550;2023-03-30T11:41:03;99869.34;;;12.28;100.00
54808;BME280;40708;50.364;7.550;2023-03-30T11:43:30;99897.44;;;11.83;100.00
54808;BME280;40708;50.364;7.550;2023-03-30T11:46:20;99956.88;;;11.79;100.00
54808;BME280;40708;50.364;7.550;2023-03-30T11:49:15;99905.28;;;11.93;100.00
54808;BME280;40708;50.364;7.550;2023-03-30T11:52:01;99888.97;;;12.18;100.00
54808;BME280;40708;50.364;7.550;2023-03-30T11:57:31;99909.91;;;12.94;100.00
54808;BME280;40708;50.364;7.550;2023-03-30T12:03:12;99888.41;;;13.93;100.00
54808;BME280;40708;50.364;7.550;2023-03-30T12:11:33;99832.41;;;13.93;100.00
54808;BME280;40708;50.364;7.550;2023-03-30T12:14:02;99838.06;;;13.80;100.00
54808;BME280;40708;50.364;7.550;2023-03-30T12:16:40;99855.19;;;13.68;100.00
54808;BME280;40708;50.364;7.550;2023-03-30T12:19:14;99878.69;;;13.49;100.00
54808;BME280;40708;50.364;7.550;2023-03-30T12:22:13;99864.53;;;13.46;100.00
54808;BME280;40708;50.364;7.550;2023-03-30T12:27:05;99865.63;;;12.88;100.00
54808;BME280;40708;50.364;7.550;2023-03-30T12:30:12;99885.00;;;12.96;100.00
54808;BME280;40708;50.364;7.550;2023-03-30T12:32:56;99866.19;;;13.05;100.00
54808;BME280;40708;50.364;7.550;2023-03-30T12:38:16;99900.22;;;13.82;100.00
54808;BME280;40708;50.364;7.550;2023-03-30T12:40:44;99896.56;;;14.25;100.00
54808;BME280;40708;50.364;7.550;2023-03-30T12:43:23;99873.56;;;14.58;100.00
54808;BME280;40708;50.364;7.550;2023-03-30T12:46:12;99839.78;;;14.91;100.00
54808;BME280;40708;50.364;7.550;2023-03-30T12:49:13;99820.06;;;15.27;100.00
54808;BME280;40708;50.364;7.550;2023-03-30T12:51:59;99815.47;;;15.63;100.00
54808;BME280;40708;50.364;7.550;2023-03-30T12:54:55;99794.00;;;15.94;100.00
54808;BME280;40708;50.364;7.550;2023-03-30T12:57:48;99790.44;;;15.66;100.00
54808;BME280;40708;50.364;7.550;2023-03-30T13:00:27;99782.00;;;15.50;100.00
54808;BME280;40708;50.364;7.550;2023-03-30T13:03:24;99785.88;;;15.69;100.00
54808;BME280;40708;50.364;7.550;2023-03-30T13:05:54;99778.13;;;15.60;100.00
54808;BME280;40708;50.364;7.550;2023-03-30T13:08:40;99775.56;;;15.85;100.00
54808;BME280;40708;50.364;7.550;2023-03-30T13:11:13;99772.00;;;16.12;100.00
54808;BME280;40708;50.364;7.550;2023-03-30T13:16:13;99760.72;;;16.30;100.00
54808;BME280;40708;50.364;7.550;2023-03-30T13:18:59;99755.06;;;16.65;100.00
54808;BME280;40708;50.364;7.550;2023-03-30T13:21:45;99758.66;;;16.64;100.00
54808;BME280;40708;50.364;7.550;2023-03-30T13:24:31;99752.13;;;16.47;100.00
54808;BME280;40708;50.364;7.550;2023-03-30T13:46:10;99765.63;;;16.42;100.00
54808;BME280;40708;50.364;7.550;2023-03-30T13:48:45;99765.22;;;16.81;100.00
54808;BME280;40708;50.364;7.550;2023-03-30T13:51:18;99753.53;;;16.83;100.00
54808;BME280;40708;50.364;7.550;2023-03-30T13:53:51;99758.75;;;17.11;100.00
54808;BME280;40708;50.364;7.550;2023-03-30T13:56:19;99751.38;;;17.17;100.00
54808;BME280;40708;50.364;7.550;2023-03-30T13:58:52;99750.84;;;17.31;100.00
54808;BME280;40708;50.364;7.550;2023-03-30T14:01:21;99736.84;;;17.23;100.00
54808;BME280;40708;50.364;7.550;2023-03-30T14:03:50;99748.69;;;17.17;100.00
54808;BME280;40708;50.364;7.550;2023-03-30T14:06:18;99744.97;;;16.97;100.00
54808;BME280;40708;50.364;7.550;2023-03-30T14:08:52;99746.38;;;16.84;100.00
54808;BME280;40708;50.364;7.550;2023-03-30T14:11:26;99745.19;;;16.91;100.00
54808;BME280;40708;50.364;7.550;2023-03-30T14:13:56;99732.25;;;16.79;100.00
54808;BME280;40708;50.364;7.550;2023-03-30T14:16:23;99738.69;;;16.98;100.00
54808;BME280;40708;50.364;7.550;2023-03-30T14:18:50;99736.78;;;17.24;100.00
54808;BME280;40708;50.364;7.550;2023-03-30T14:21:21;99733.38;;;17.44;100.00
54808;BME280;40708;50.364;7.550;2023-03-30T14:23:52;99733.41;;;17.43;100.00
54808;BME280;40708;50.364;7.550;2023-03-30T14:26:22;99730.97;;;17.13;100.00
54808;BME280;40708;50.364;7.550;2023-03-30T14:28:53;99730.25;;;17.32;100.00
54808;BME280;40708;50.364;7.550;2023-03-30T14:31:20;99725.72;;;17.10;100.00
54808;BME280;40708;50.364;7.550;2023-03-30T14:33:46;99725.81;;;17.07;100.00
54808;BME280;40708;50.364;7.550;2023-03-30T14:36:14;99725.31;;;17.21;100.00